Time;durP1;ratioP1;P1;durP2;ratioP2;P2;SDS_P1;SDS_P2;PMS_P1;PMS_P2;Temp;Humidity;BMP_temperature;BMP_pressure;BME280_temperature;BME280_humidity;BME280_pressure;Samples;Min_cycle;Max_cycle;Signal;HPM_P1;HPM_P2
2021/01/21 00:00:06;;;;;;;16.17;8.60;;;;;;;-0.30;100.00;95084.19;5056360;28;20589;-69
2021/01/21 00:02:32;;;;;;;20.13;8.97;;;;;;;-0.16;100.00;95079.38;5056564;28;20252;-69
2021/01/21 00:04:58;;;;;;;18.53;8.47;;;;;;;-0.17;100.00;95066.56;5056015;28;20228;-69
2021/01/21 00:07:25;;;;;;;19.37;9.40;;;;;;;-0.11;100.00;95055.66;5055671;28;20224;-70
2021/01/21 00:09:51;;;;;;;18.37;9.67;;;;;;;-0.13;100.00;95036.84;5056070;28;20215;-70
2021/01/21 00:12:17;;;;;;;17.67;8.63;;;;;;;-0.31;100.00;95036.75;5056602;28;20684;-70
2021/01/21 00:14:43;;;;;;;19.03;9.50;;;;;;;-0.46;100.00;95019.25;5056277;28;20200;-70
2021/01/21 00:17:08;;;;;;;21.43;9.63;;;;;;;-0.59;100.00;95034.25;5055564;28;20633;-70
2021/01/21 00:19:34;;;;;;;20.07;9.50;;;;;;;-0.55;100.00;95041.63;5056639;28;20893;-70
2021/01/21 00:22:00;;;;;;;15.53;9.40;;;;;;;-0.62;100.00;95034.56;5059346;28;20207;-70
2021/01/21 00:24:27;;;;;;;18.90;9.20;;;;;;;-0.50;100.00;95049.78;5060264;28;20687;-70
2021/01/21 00:26:53;;;;;;;18.17;8.90;;;;;;;-0.50;100.00;95028.25;5059717;28;20281;-70
2021/01/21 00:29:19;;;;;;;17.00;9.03;;;;;;;-0.61;100.00;95031.03;5060021;28;20200;-70
2021/01/21 00:31:45;;;;;;;23.90;10.33;;;;;;;-0.41;100.00;95043.75;5060004;28;20204;-70
2021/01/21 00:47:39;;;;;;;24.87;11.13;;;;;;;-0.17;100.00;95061.38;5059217;28;20321;-70
2021/01/21 00:50:06;;;;;;;122.70;25.00;;;;;;;-0.20;100.00;95057.31;5058401;28;20222;-70
2021/01/21 00:52:32;;;;;;;267.97;42.70;;;;;;;-0.16;100.00;95056.06;5060462;28;20650;-70
2021/01/21 00:54:58;;;;;;;102.40;23.20;;;;;;;-0.23;100.00;95055.00;5059480;28;20233;-70
2021/01/21 00:57:24;;;;;;;186.83;34.73;;;;;;;-0.04;100.00;95047.16;5059206;28;21144;-70
2021/01/21 00:59:50;;;;;;;83.57;20.77;;;;;;;-0.11;100.00;95046.09;5060003;28;20250;-70
2021/01/21 01:02:16;;;;;;;35.40;12.13;;;;;;;-0.25;100.00;95058.69;5059173;28;20246;-70
2021/01/21 01:04:42;;;;;;;55.20;15.10;;;;;;;-0.08;100.00;95045.81;5059163;28;20313;-70
2021/01/21 01:07:08;;;;;;;58.63;16.67;;;;;;;-0.10;100.00;95027.03;5058787;28;20242;-70
2021/01/21 01:09:34;;;;;;;52.10;14.60;;;;;;;-0.29;100.00;95023.72;5059261;28;20693;-70
2021/01/21 01:12:00;;;;;;;61.33;16.20;;;;;;;-0.13;100.00;95034.25;5059365;28;20222;-70
2021/01/21 01:14:26;;;;;;;71.03;18.90;;;;;;;-0.10;100.00;95036.56;5059541;28;20676;-70
2021/01/21 01:16:52;;;;;;;51.80;15.67;;;;;;;-0.04;100.00;95034.22;5058184;28;20795;-70
2021/01/21 01:19:18;;;;;;;55.23;15.77;;;;;;;-0.09;100.00;95033.81;5059078;28;20254;-70
2021/01/21 01:21:45;;;;;;;38.70;14.37;;;;;;;-0.05;100.00;95029.19;5059257;28;20913;-70
2021/01/21 01:24:11;;;;;;;23.73;9.70;;;;;;;-0.14;100.00;95038.63;5059307;28;20293;-70
2021/01/21 01:26:37;;;;;;;18.77;9.50;;;;;;;-0.16;100.00;95032.78;5058094;28;20241;-70
2021/01/21 01:29:03;;;;;;;19.90;9.07;;;;;;;-0.21;100.00;95016.03;5059216;28;20204;-70
2021/01/21 01:31:29;;;;;;;18.03;8.70;;;;;;;-0.29;100.00;95021.94;5058805;28;20205;-70
2021/01/21 01:33:55;;;;;;;17.97;8.63;;;;;;;-0.07;100.00;95015.59;5058814;28;20795;-70
2021/01/21 01:36:21;;;;;;;17.90;9.17;;;;;;;-0.10;100.00;95018.44;5057956;28;20233;-70
2021/01/21 01:38:48;;;;;;;18.30;8.93;;;;;;;-0.19;100.00;95001.16;5059049;28;20231;-70
2021/01/21 01:41:14;;;;;;;17.07;8.57;;;;;;;-0.21;100.00;94992.75;5059082;28;20272;-70
2021/01/21 01:43:39;;;;;;;14.93;8.87;;;;;;;-0.27;100.00;94994.13;5058618;28;21088;-70
2021/01/21 01:46:07;;;;;;;16.93;9.03;;;;;;;-0.15;100.00;94997.34;5057943;28;20262;-70
2021/01/21 01:48:33;;;;;;;20.87;9.00;;;;;;;-0.06;100.00;94992.13;5059258;28;20222;-71
2021/01/21 01:50:59;;;;;;;17.30;8.37;;;;;;;0.03;100.00;94999.84;5058340;28;21017;-70
2021/01/21 01:53:28;;;;;;;17.10;8.67;;;;;;;0.09;100.00;94998.47;5058606;28;20786;-70
2021/01/21 01:55:55;;;;;;;21.50;9.67;;;;;;;0.09;100.00;94988.13;5058280;28;20219;-70
2021/01/21 01:58:23;;;;;;;18.60;9.33;;;;;;;0.07;100.00;94995.19;5058669;28;20254;-70
2021/01/21 02:00:53;;;;;;;16.93;8.77;;;;;;;0.05;100.00;95008.28;5057903;28;21163;-70
2021/01/21 02:03:19;;;;;;;16.83;8.60;;;;;;;-0.06;100.00;95001.66;5058083;28;20197;-70
2021/01/21 02:05:45;;;;;;;19.23;8.97;;;;;;;0.08;100.00;94997.63;5058249;28;20606;-70
2021/01/21 02:08:11;;;;;;;17.90;8.93;;;;;;;0.16;100.00;94987.38;5058046;28;20206;-70
2021/01/21 02:10:37;;;;;;;17.17;7.87;;;;;;;0.29;100.00;94993.00;5058165;28;20214;-70
2021/01/21 02:13:23;;;;;;;25.13;8.70;;;;;;;0.43;100.00;95002.88;5058357;28;20330;-70
2021/01/21 02:15:58;;;;;;;16.57;9.00;;;;;;;0.33;100.00;95002.16;5057440;28;20223;-70
2021/01/21 02:18:28;;;;;;;18.47;8.97;;;;;;;0.21;100.00;95000.69;5058106;28;20207;-70
2021/01/21 02:21:30;;;;;;;18.20;9.67;;;;;;;0.39;100.00;95008.50;5058189;28;20738;-71
2021/01/21 02:24:38;;;;;;;16.70;9.00;;;;;;;0.27;100.00;95015.66;5057977;28;20210;-70
2021/01/21 02:27:05;;;;;;;20.03;9.30;;;;;;;0.21;100.00;95024.00;5057186;28;20683;-70
2021/01/21 02:29:35;;;;;;;19.27;9.23;;;;;;;0.05;100.00;95013.47;5058050;28;20207;-70
2021/01/21 02:32:50;;;;;;;17.13;8.93;;;;;;;0.14;100.00;95017.78;5057526;28;20210;-70
2021/01/21 02:35:18;;;;;;;17.67;8.63;;;;;;;0.26;100.00;95018.41;5057042;28;20267;-70
2021/01/21 02:37:48;;;;;;;16.17;8.87;;;;;;;0.29;100.00;95016.31;5057868;28;20222;-70
2021/01/21 02:40:15;;;;;;;18.97;9.10;;;;;;;0.20;100.00;95024.97;5057653;28;20211;-70
2021/01/21 02:42:46;;;;;;;19.77;9.30;;;;;;;0.14;100.00;95010.00;5057443;28;20212;-70
2021/01/21 02:45:13;;;;;;;18.10;9.57;;;;;;;0.17;100.00;95009.72;5056570;28;20230;-71
2021/01/21 02:47:39;;;;;;;15.43;8.60;;;;;;;0.10;100.00;95007.84;5057616;28;20311;-70
2021/01/21 02:50:06;;;;;;;18.63;9.17;;;;;;;0.16;100.00;94997.72;5057156;28;20209;-70
2021/01/21 02:52:39;;;;;;;15.50;8.47;;;;;;;0.09;100.00;94991.50;5057409;28;20205;-70
2021/01/21 02:55:14;;;;;;;18.30;8.93;;;;;;;0.13;100.00;94992.84;5056240;28;20205;-70
2021/01/21 02:57:47;;;;;;;18.10;8.33;;;;;;;0.29;100.00;94979.25;5057465;28;20223;-70
2021/01/21 03:00:15;;;;;;;20.23;8.70;;;;;;;0.27;100.00;94974.22;5057042;28;20671;-70
2021/01/21 03:02:44;;;;;;;17.67;8.40;;;;;;;0.21;100.00;94981.75;5056997;28;20548;-70
2021/01/21 03:05:13;;;;;;;18.30;8.87;;;;;;;0.10;100.00;94977.59;5056265;28;20227;-70
2021/01/21 03:07:40;;;;;;;20.57;9.50;;;;;;;0.16;100.00;94968.44;5057549;28;20285;-71
2021/01/21 03:10:08;;;;;;;17.13;8.83;;;;;;;0.00;100.00;94968.28;5057108;28;20233;-70
2021/01/21 03:12:35;;;;;;;18.77;9.60;;;;;;;-0.14;100.00;94973.94;5057026;28;20216;-70
2021/01/21 03:15:01;;;;;;;17.73;8.47;;;;;;;-0.09;100.00;94970.88;5056354;28;20207;-70
2021/01/21 03:17:28;;;;;;;17.27;8.83;;;;;;;0.08;100.00;94963.16;5057326;28;20235;-70
2021/01/21 03:19:55;;;;;;;17.20;8.60;;;;;;;0.14;100.00;94963.41;5056909;28;20205;-70
2021/01/21 03:22:21;;;;;;;16.37;8.30;;;;;;;-0.06;100.00;94947.28;5057100;28;20196;-70
2021/01/21 03:24:48;;;;;;;15.07;7.77;;;;;;;-0.07;100.00;94945.69;5057287;28;20224;-70
2021/01/21 03:27:14;;;;;;;14.33;7.63;;;;;;;-0.12;100.00;94942.72;5055583;28;20227;-70
2021/01/21 03:29:40;;;;;;;14.47;7.20;;;;;;;-0.15;100.00;94941.22;5057082;28;20219;-70
2021/01/21 03:32:06;;;;;;;19.33;8.73;;;;;;;-0.11;100.00;94952.13;5056863;28;20593;-70
2021/01/21 03:34:32;;;;;;;12.87;7.20;;;;;;;0.01;100.00;94944.81;5056356;28;20224;-70
2021/01/21 03:36:58;;;;;;;14.43;7.00;;;;;;;0.13;100.00;94946.22;5056160;28;20280;-70
2021/01/21 03:39:24;;;;;;;14.27;6.43;;;;;;;0.17;100.00;94952.75;5055434;28;20196;-70
2021/01/21 03:41:52;;;;;;;14.33;7.17;;;;;;;0.16;100.00;94958.06;5056011;28;20215;-70
2021/01/21 03:44:19;;;;;;;14.10;7.40;;;;;;;0.27;100.00;94956.09;5056441;28;20215;-70
2021/01/21 03:46:45;;;;;;;14.10;7.60;;;;;;;0.41;100.00;94963.34;5055959;28;20240;-70
2021/01/21 03:49:11;;;;;;;11.17;7.03;;;;;;;0.49;100.00;94957.44;5056665;28;20214;-70
2021/01/21 03:51:37;;;;;;;12.10;6.80;;;;;;;0.50;100.00;94966.81;5056567;28;20547;-70
2021/01/21 03:54:04;;;;;;;14.77;7.23;;;;;;;0.51;100.00;94973.66;5056469;28;20740;-70
2021/01/21 03:56:30;;;;;;;12.87;6.90;;;;;;;0.65;100.00;94973.97;5055110;28;20230;-70
2021/01/21 03:58:56;;;;;;;18.03;8.20;;;;;;;0.72;100.00;94977.56;5056104;28;20244;-70
2021/01/21 04:01:22;;;;;;;19.60;8.33;;;;;;;0.81;100.00;94979.28;5056678;28;20211;-70
2021/01/21 04:03:49;;;;;;;15.00;8.23;;;;;;;0.85;100.00;94984.03;5056638;28;20203;-70
2021/01/21 04:06:15;;;;;;;14.27;7.50;;;;;;;0.91;100.00;94985.19;5055381;28;20231;-70
2021/01/21 04:08:41;;;;;;;13.10;6.30;;;;;;;0.97;100.00;94994.94;5056779;28;20682;-70
2021/01/21 04:11:07;;;;;;;12.77;6.90;;;;;;;0.83;100.00;94983.34;5056518;28;20211;-70
2021/01/21 04:13:33;;;;;;;15.73;6.83;;;;;;;0.79;100.00;94992.38;5056246;28;20232;-70
2021/01/21 04:16:00;;;;;;;10.37;6.17;;;;;;;0.92;100.00;94977.28;5055230;28;20227;-70
2021/01/21 04:18:26;;;;;;;12.53;6.60;;;;;;;1.09;100.00;94976.41;5057046;28;20643;-70
2021/01/21 04:20:52;;;;;;;14.03;7.63;;;;;;;1.25;100.00;94982.53;5056804;28;20200;-70
2021/01/21 04:23:18;;;;;;;18.10;9.27;;;;;;;1.26;100.00;94976.41;5055910;28;20250;-70
2021/01/21 04:25:44;;;;;;;16.60;9.50;;;;;;;1.24;100.00;94977.50;5055720;28;20818;-70
2021/01/21 04:28:10;;;;;;;20.57;9.37;;;;;;;1.27;100.00;94972.84;5056145;28;20713;-70
2021/01/21 04:30:36;;;;;;;20.20;8.90;;;;;;;1.31;100.00;94971.56;5056166;28;20205;-70
2021/01/21 04:33:03;;;;;;;17.77;7.97;;;;;;;1.32;100.00;94969.78;5056535;28;20212;-70
2021/01/21 04:35:29;;;;;;;16.83;8.30;;;;;;;1.27;100.00;94978.03;5055576;28;20612;-70
2021/01/21 04:37:55;;;;;;;16.17;8.07;;;;;;;1.34;100.00;94981.63;5056071;28;20238;-70
2021/01/21 04:40:21;;;;;;;14.53;7.07;;;;;;;1.34;100.00;94984.22;5056305;28;20211;-70
2021/01/21 04:42:47;;;;;;;13.10;6.87;;;;;;;1.35;100.00;94972.88;5055917;28;20211;-70
2021/01/21 04:45:13;;;;;;;11.97;6.70;;;;;;;1.28;100.00;94973.66;5055569;28;20221;-70
2021/01/21 04:47:40;;;;;;;11.10;6.53;;;;;;;1.31;100.00;94973.34;5056006;28;20238;-70
2021/01/21 04:50:08;;;;;;;13.77;6.90;;;;;;;1.26;100.00;94968.63;5056302;28;20211;-70
2021/01/21 04:52:38;;;;;;;12.77;6.90;;;;;;;1.24;100.00;94975.72;5055716;28;20205;-70
2021/01/21 04:55:08;;;;;;;18.43;8.97;;;;;;;1.21;100.00;94983.00;5055400;28;20702;-70
2021/01/21 04:57:41;;;;;;;19.67;10.13;;;;;;;1.13;100.00;94969.97;5056221;28;21079;-70
2021/01/21 05:00:09;;;;;;;19.00;9.37;;;;;;;1.13;100.00;94979.53;5055946;28;20265;-70
2021/01/21 05:02:38;;;;;;;21.03;10.27;;;;;;;1.28;100.00;94971.84;5055901;28;20215;-70
2021/01/21 05:05:05;;;;;;;21.27;9.87;;;;;;;1.29;100.00;94965.72;5055491;28;20592;-70
2021/01/21 05:07:32;;;;;;;20.50;10.30;;;;;;;1.38;100.00;94966.59;5057777;28;20228;-71
2021/01/21 05:09:59;;;;;;;19.20;8.73;;;;;;;1.44;100.00;94978.94;5059302;28;20220;-70
2021/01/21 05:12:25;;;;;;;16.43;7.70;;;;;;;1.41;100.00;94964.50;5059490;28;20196;-70
2021/01/21 05:14:51;;;;;;;13.20;7.60;;;;;;;1.34;100.00;94954.88;5059357;28;20231;-70
2021/01/21 05:17:17;;;;;;;14.17;7.60;;;;;;;1.25;100.00;94961.78;5058568;28;20221;-70
2021/01/21 05:19:45;;;;;;;13.17;7.13;;;;;;;1.13;100.00;94956.19;5059178;28;20253;-70
2021/01/21 05:22:12;;;;;;;16.20;7.70;;;;;;;1.22;100.00;94953.50;5059177;28;20205;-70
2021/01/21 05:24:38;;;;;;;16.33;7.60;;;;;;;1.29;100.00;94946.75;5058958;28;20230;-70
2021/01/21 05:27:05;;;;;;;16.93;8.53;;;;;;;1.37;100.00;94944.19;5058801;28;20231;-70
2021/01/21 05:29:31;;;;;;;18.53;8.37;;;;;;;1.28;100.00;94940.72;5059104;28;20272;-70
2021/01/21 05:31:57;;;;;;;17.67;9.07;;;;;;;1.35;100.00;94940.91;5059024;28;20215;-70
2021/01/21 05:34:23;;;;;;;18.37;9.87;;;;;;;1.30;100.00;94938.81;5058979;28;20200;-70
2021/01/21 05:36:49;;;;;;;19.10;10.23;;;;;;;1.26;100.00;94934.88;5058903;28;20228;-70
2021/01/21 05:39:17;;;;;;;16.00;8.57;;;;;;;1.14;100.00;94937.09;5059115;28;20207;-70
2021/01/21 05:41:44;;;;;;;16.17;8.27;;;;;;;1.22;100.00;94927.56;5058448;28;20204;-70
2021/01/21 05:44:10;;;;;;;14.87;7.50;;;;;;;1.18;100.00;94933.22;5059101;28;20212;-70
2021/01/21 05:46:36;;;;;;;12.47;6.87;;;;;;;1.16;100.00;94945.50;5058097;28;20239;-70
2021/01/21 05:49:02;;;;;;;14.93;7.20;;;;;;;1.29;100.00;94939.75;5058281;28;20207;-70
2021/01/21 05:51:29;;;;;;;12.33;6.73;;;;;;;1.31;100.00;94948.22;5058761;28;20253;-70
2021/01/21 05:53:56;;;;;;;12.63;6.50;;;;;;;1.34;100.00;94936.72;5058701;28;20215;-70
2021/01/21 05:56:24;;;;;;;16.13;7.30;;;;;;;1.26;100.00;94940.09;5057542;28;20220;-70
2021/01/21 05:58:53;;;;;;;12.47;6.90;;;;;;;1.30;100.00;94940.59;5058433;28;20671;-70
2021/01/21 06:01:20;;;;;;;15.00;6.63;;;;;;;1.37;100.00;94951.97;5058040;28;20208;-70
2021/01/21 06:03:47;;;;;;;12.10;6.70;;;;;;;1.26;100.00;94945.28;5058392;28;20717;-70
2021/01/21 06:06:14;;;;;;;18.80;9.63;;;;;;;1.11;100.00;94950.31;5057586;28;20278;-71
2021/01/21 06:08:42;;;;;;;18.53;8.37;;;;;;;1.23;100.00;94949.94;5058221;28;20212;-70
2021/01/21 06:11:08;;;;;;;29.57;13.73;;;;;;;1.29;100.00;94950.13;5058174;28;20246;-70
2021/01/21 06:13:35;;;;;;;30.10;14.13;;;;;;;1.27;100.00;94948.66;5058275;28;20204;-70
2021/01/21 06:16:04;;;;;;;26.03;13.67;;;;;;;1.30;100.00;94949.19;5057738;28;20311;-70
2021/01/21 06:18:30;;;;;;;18.67;8.67;;;;;;;1.26;100.00;94960.84;5057455;28;20204;-71
2021/01/21 06:20:56;;;;;;;20.57;10.03;;;;;;;1.51;100.00;94954.00;5058197;28;20211;-70
2021/01/21 06:23:24;;;;;;;23.10;9.97;;;;;;;1.48;100.00;94964.72;5058279;28;20205;-70
2021/01/21 06:25:53;;;;;;;23.40;10.47;;;;;;;1.48;100.00;94970.69;5057300;28;21191;-70
2021/01/21 06:28:21;;;;;;;18.73;9.37;;;;;;;1.40;100.00;94973.25;5058048;28;20654;-70
2021/01/21 06:30:49;;;;;;;16.27;8.17;;;;;;;1.37;100.00;94981.31;5058162;28;20209;-70
2021/01/21 06:33:20;;;;;;;17.20;8.80;;;;;;;1.46;100.00;94992.59;5057744;28;20209;-71
2021/01/21 06:35:55;;;;;;;17.37;8.70;;;;;;;1.39;100.00;94997.56;5056639;28;20224;-71
2021/01/21 06:38:24;;;;;;;15.90;8.23;;;;;;;1.36;100.00;94997.88;5058358;28;20203;-71
2021/01/21 06:40:53;;;;;;;14.67;8.20;;;;;;;1.46;100.00;95001.16;5057981;28;20209;-71
2021/01/21 06:43:20;;;;;;;16.17;8.88;;;;;;;1.97;100.00;94990.75;5057102;28;20426;-71
2021/01/21 06:45:47;;;;;;;16.50;8.30;;;;;;;1.90;100.00;95000.94;5056542;28;20228;-71
2021/01/21 06:48:13;;;;;;;14.80;8.00;;;;;;;1.76;100.00;95000.72;5058272;28;20197;-71
2021/01/21 06:50:42;;;;;;;19.97;9.63;;;;;;;1.42;100.00;95005.03;5057659;28;20290;-70
2021/01/21 06:53:11;;;;;;;14.57;8.80;;;;;;;1.25;100.00;95000.72;5057644;28;20212;-71
2021/01/21 06:55:40;;;;;;;18.97;9.47;;;;;;;1.07;100.00;95006.91;5056841;28;20200;-70
2021/01/21 06:58:07;;;;;;;19.50;10.27;;;;;;;0.99;100.00;95000.81;5057388;28;20204;-71
2021/01/21 07:00:44;;;;;;;16.87;9.37;;;;;;;1.06;100.00;95000.06;5057189;28;20246;-70
2021/01/21 07:03:29;;;;;;;18.60;9.40;;;;;;;1.04;100.00;95011.56;5057360;28;20200;-71
2021/01/21 07:05:57;;;;;;;16.70;9.50;;;;;;;1.02;100.00;95008.28;5056242;28;20227;-71
2021/01/21 07:08:23;;;;;;;22.00;10.43;;;;;;;0.98;100.00;95012.97;5056497;28;20205;-71
2021/01/21 07:10:50;;;;;;;19.73;10.83;;;;;;;0.95;100.00;95017.66;5057392;28;20323;-71
2021/01/21 07:13:19;;;;;;;25.80;12.00;;;;;;;0.89;100.00;95026.00;5057359;28;20211;-71
2021/01/21 07:15:46;;;;;;;60.33;18.33;;;;;;;0.94;100.00;95028.97;5056098;28;20231;-71
2021/01/21 07:18:16;;;;;;;51.17;17.83;;;;;;;1.02;100.00;95026.44;5057708;28;20211;-70
2021/01/21 07:21:09;;;;;;;47.10;18.73;;;;;;;1.08;100.00;95013.69;5055119;28;20702;-70
2021/01/21 07:23:44;;;;;;;24.63;10.70;;;;;;;1.29;100.00;95012.41;5056249;28;20742;-71
2021/01/21 07:26:31;;;;;;;18.03;8.63;;;;;;;1.37;100.00;94998.69;5055415;28;20707;-71
2021/01/21 07:29:09;;;;;;;18.27;7.60;;;;;;;1.50;100.00;95004.28;5055998;28;20207;-71
2021/01/21 07:32:04;;;;;;;10.27;6.03;;;;;;;1.67;100.00;95001.63;5056248;28;20207;-71
2021/01/21 07:34:38;;;;;;;8.60;5.17;;;;;;;1.90;100.00;95005.34;5056354;28;20208;-71
2021/01/21 07:37:22;;;;;;;8.70;4.50;;;;;;;2.25;100.00;95007.75;5055175;28;20220;-72
2021/01/21 07:39:50;;;;;;;5.97;3.73;;;;;;;2.46;99.62;95012.38;5055982;28;20201;-71
2021/01/21 07:42:17;;;;;;;7.93;4.33;;;;;;;2.53;99.85;95007.34;5056512;28;20211;-71
2021/01/21 07:44:57;;;;;;;6.83;4.37;;;;;;;2.71;97.41;95011.47;5056109;28;20693;-72
2021/01/21 07:47:29;;;;;;;13.80;3.50;;;;;;;2.76;96.81;95014.41;5055745;28;20278;-71
2021/01/21 07:50:33;;;;;;;9.63;3.87;;;;;;;2.87;95.12;95014.09;5057360;28;20205;-71
2021/01/21 07:53:02;;;;;;;9.93;3.93;;;;;;;2.85;95.45;95010.84;5056101;28;20199;-71
2021/01/21 07:55:29;;;;;;;8.13;3.93;;;;;;;2.92;95.00;95017.03;5055577;28;20204;-71
2021/01/21 07:58:14;;;;;;;10.23;4.47;;;;;;;2.97;94.75;95000.97;5056597;28;20295;-71
2021/01/21 08:00:40;;;;;;;9.07;4.23;;;;;;;2.96;94.57;95005.31;5055575;28;20200;-71
2021/01/21 08:03:06;;;;;;;19.57;8.90;;;;;;;2.97;94.77;94998.34;5056501;28;20265;-71
2021/01/21 08:05:32;;;;;;;10.20;5.70;;;;;;;3.04;94.44;94992.31;5055307;28;20216;-71
2021/01/21 08:07:57;;;;;;;12.53;6.53;;;;;;;3.04;93.57;94994.91;5055987;28;20232;-71
2021/01/21 08:10:26;;;;;;;19.07;8.93;;;;;;;3.07;93.34;94989.41;5055746;28;20299;-71
2021/01/21 08:12:53;;;;;;;19.17;7.37;;;;;;;2.98;94.26;94990.38;5056294;28;20208;-71
2021/01/21 08:15:19;;;;;;;9.30;4.73;;;;;;;2.99;94.19;94988.59;5055258;28;20207;-71
2021/01/21 08:17:48;;;;;;;13.60;5.83;;;;;;;2.98;93.88;94992.16;5055911;28;20252;-71
2021/01/21 08:20:14;;;;;;;8.87;4.63;;;;;;;3.01;93.47;94990.84;5056279;28;20253;-71
2021/01/21 08:22:58;;;;;;;10.20;4.70;;;;;;;3.10;92.76;94987.28;5055973;28;20211;-71
2021/01/21 08:25:26;;;;;;;8.10;4.33;;;;;;;3.31;91.51;94984.19;5054655;28;20259;-71
2021/01/21 08:27:53;;;;;;;8.93;4.23;;;;;;;3.48;90.01;94985.81;5055582;28;20208;-71
2021/01/21 08:30:24;;;;;;;9.20;4.07;;;;;;;3.63;89.38;94980.56;5055943;28;20207;-71
2021/01/21 08:32:53;;;;;;;9.70;3.67;;;;;;;3.75;88.20;94975.84;5055502;28;20837;-71
2021/01/21 08:35:23;;;;;;;7.67;3.90;;;;;;;3.90;87.98;94995.81;5055419;28;20216;-71
2021/01/21 08:37:51;;;;;;;7.10;4.37;;;;;;;4.05;86.22;94995.94;5056012;28;20204;-71
2021/01/21 08:40:18;;;;;;;10.43;4.97;;;;;;;4.16;85.11;94990.38;5055715;28;20668;-71
2021/01/21 08:42:47;;;;;;;10.83;5.97;;;;;;;4.39;83.21;94999.88;5057859;28;20232;-71
2021/01/21 08:45:14;;;;;;;8.67;5.23;;;;;;;4.48;83.06;94993.63;5058925;28;20224;-71
2021/01/21 08:47:41;;;;;;;12.00;4.87;;;;;;;4.43;83.66;94999.38;5059374;28;20231;-71
2021/01/21 08:50:08;;;;;;;8.90;5.53;;;;;;;4.36;84.73;95001.03;5059754;28;20211;-72
2021/01/21 08:52:34;;;;;;;12.10;5.07;;;;;;;4.47;83.78;95018.13;5059375;28;21070;-71
2021/01/21 08:55:00;;;;;;;9.97;4.80;;;;;;;4.51;83.91;95015.00;5058441;28;20200;-71
2021/01/21 08:57:26;;;;;;;12.37;6.30;;;;;;;4.53;84.08;95006.97;5059129;28;20286;-71
2021/01/21 08:59:53;;;;;;;12.27;6.43;;;;;;;4.60;83.91;95002.72;5059972;28;20204;-71
2021/01/21 09:02:40;;;;;;;18.57;5.57;;;;;;;4.58;83.61;94995.09;5059336;28;20204;-71
2021/01/21 09:05:07;;;;;;;11.00;5.60;;;;;;;4.53;83.70;94980.91;5058198;28;20315;-71
2021/01/21 09:07:33;;;;;;;9.40;4.60;;;;;;;4.54;84.27;94979.94;5058654;28;20228;-71
2021/01/21 09:10:09;;;;;;;10.67;4.00;;;;;;;4.65;83.60;94985.56;5059298;28;20218;-71
2021/01/21 09:12:35;;;;;;;10.10;3.70;;;;;;;4.69;83.76;94980.84;5058718;28;20295;-71
2021/01/21 09:15:04;;;;;;;9.73;3.20;;;;;;;4.92;82.10;94985.09;5057821;28;20200;-71
2021/01/21 09:17:32;;;;;;;13.00;2.90;;;;;;;5.14;81.40;94986.88;5058948;28;20259;-72
2021/01/21 09:19:59;;;;;;;6.20;3.00;;;;;;;5.37;79.35;94985.06;5058511;28;20211;-71
2021/01/21 09:22:28;;;;;;;10.17;3.50;;;;;;;5.51;78.53;94996.38;5059010;28;20782;-71
2021/01/21 09:24:56;;;;;;;10.80;3.53;;;;;;;5.57;78.02;95005.31;5058658;28;20204;-71
2021/01/21 09:27:23;;;;;;;9.00;3.83;;;;;;;5.64;78.20;95008.84;5058015;28;20239;-71
2021/01/21 09:29:51;;;;;;;9.67;4.50;;;;;;;5.78;77.27;95015.91;5058494;28;20283;-71
2021/01/21 09:32:19;;;;;;;8.63;4.20;;;;;;;5.88;76.90;95009.47;5058336;28;20205;-71
2021/01/21 09:34:55;;;;;;;12.67;3.40;;;;;;;5.92;76.62;95015.13;5058354;28;20196;-71
2021/01/21 09:37:21;;;;;;;23.63;7.93;;;;;;;5.94;76.73;95013.97;5057995;28;20226;-71
2021/01/21 09:39:47;;;;;;;13.37;6.30;;;;;;;5.87;77.49;95009.63;5058709;28;20550;-72
2021/01/21 09:42:13;;;;;;;10.30;3.70;;;;;;;5.95;77.58;95020.03;5058693;28;20289;-71
2021/01/21 09:44:39;;;;;;;7.20;3.70;;;;;;;6.18;76.55;94996.22;5058353;28;20201;-72
2021/01/21 09:47:05;;;;;;;7.30;4.23;;;;;;;6.33;75.52;94988.38;5057537;28;20708;-72
2021/01/21 09:49:32;;;;;;;12.43;5.70;;;;;;;6.25;75.31;94989.28;5058691;28;21202;-71
2021/01/21 09:51:59;;;;;;;9.73;4.20;;;;;;;6.27;74.67;94979.44;5058494;28;20204;-71
2021/01/21 09:54:25;;;;;;;9.83;4.20;;;;;;;6.33;75.37;94973.50;5057912;28;20207;-71
2021/01/21 09:56:52;;;;;;;11.70;4.00;;;;;;;6.32;74.59;94961.41;5057996;28;20216;-71
2021/01/21 09:59:18;;;;;;;7.70;3.80;;;;;;;6.30;75.07;94967.81;5057673;28;20236;-71
2021/01/21 10:01:44;;;;;;;9.80;4.10;;;;;;;6.61;75.72;94965.78;5058442;28;20211;-72
2021/01/21 10:04:10;;;;;;;8.70;4.03;;;;;;;6.50;74.38;94953.97;5058525;28;20291;-72
2021/01/21 10:06:36;;;;;;;7.57;4.17;;;;;;;6.30;75.04;94952.94;5056904;28;20228;-72
2021/01/21 10:09:02;;;;;;;5.10;2.87;;;;;;;6.60;73.44;94962.34;5057677;28;20208;-72
2021/01/21 10:11:28;;;;;;;5.30;3.37;;;;;;;6.86;73.51;94957.41;5059257;28;20215;-72
2021/01/21 10:13:54;;;;;;;7.33;2.97;;;;;;;6.94;72.26;94962.53;5057618;28;20204;-72
2021/01/21 10:16:20;;;;;;;5.50;2.43;;;;;;;7.16;70.93;94972.81;5057012;28;20227;-72
2021/01/21 10:18:46;;;;;;;6.43;2.50;;;;;;;7.28;71.12;94966.91;5057941;28;20208;-72
2021/01/21 10:21:12;;;;;;;4.70;2.40;;;;;;;7.26;71.16;94969.91;5058143;28;20208;-72
2021/01/21 10:23:38;;;;;;;5.23;2.50;;;;;;;7.47;70.20;94966.28;5057472;28;20208;-72
2021/01/21 10:26:04;;;;;;;5.63;2.57;;;;;;;7.40;69.64;94962.78;5056797;28;20236;-72
2021/01/21 10:28:30;;;;;;;5.33;2.60;;;;;;;7.56;70.17;94964.31;5057899;28;20200;-72
2021/01/21 10:30:56;;;;;;;7.77;2.70;;;;;;;7.55;70.75;94968.75;5057340;28;20216;-72
2021/01/21 10:33:22;;;;;;;6.83;2.80;;;;;;;7.71;69.56;94980.78;5057755;28;20197;-72
2021/01/21 10:35:48;;;;;;;7.40;2.83;;;;;;;7.80;69.63;94969.16;5056789;28;20235;-72
2021/01/21 10:38:14;;;;;;;4.03;2.23;;;;;;;7.92;69.52;94955.34;5057018;28;20201;-72
2021/01/21 10:40:41;;;;;;;6.33;1.80;;;;;;;8.12;69.11;94937.88;5057515;28;20204;-72
2021/01/21 10:43:07;;;;;;;3.33;1.83;;;;;;;8.33;67.33;94933.41;5057225;28;20208;-72
2021/01/21 10:45:33;;;;;;;3.07;1.87;;;;;;;8.48;67.09;94939.34;5055936;28;20220;-72
2021/01/21 10:47:59;;;;;;;6.53;2.00;;;;;;;8.61;67.15;94945.44;5057357;28;20571;-72
2021/01/21 10:50:25;;;;;;;6.83;2.00;;;;;;;8.64;66.86;94946.84;5057078;28;20224;-72
2021/01/21 10:52:51;;;;;;;6.27;2.10;;;;;;;8.72;66.54;94959.84;5057001;28;21343;-72
2021/01/21 10:55:17;;;;;;;5.63;2.13;;;;;;;8.74;66.03;94963.84;5056210;28;20723;-72
2021/01/21 10:57:43;;;;;;;10.40;3.60;;;;;;;8.76;66.35;94959.22;5057020;28;20228;-72
2021/01/21 11:00:10;;;;;;;4.10;1.93;;;;;;;8.78;66.66;94959.03;5057008;28;20205;-72
2021/01/21 11:02:36;;;;;;;5.90;2.30;;;;;;;8.94;65.70;94954.25;5057441;28;20204;-72
2021/01/21 11:05:02;;;;;;;5.53;2.17;;;;;;;9.17;65.37;94952.88;5056035;28;20204;-72
2021/01/21 11:07:28;;;;;;;3.93;1.90;;;;;;;9.45;64.05;94950.09;5054658;28;20754;-72
2021/01/21 11:09:54;;;;;;;6.63;2.30;;;;;;;9.30;63.99;94957.34;5055754;28;20216;-72
2021/01/21 11:12:20;;;;;;;11.60;4.10;;;;;;;9.56;62.92;94960.00;5055264;28;20220;-72
2021/01/21 11:14:51;;;;;;;12.83;3.67;;;;;;;9.68;62.54;94965.25;5055637;28;20204;-71
2021/01/21 11:17:17;;;;;;;13.90;3.87;;;;;;;9.73;62.49;94969.94;5054345;28;20228;-72
2021/01/21 11:19:43;;;;;;;8.47;3.20;;;;;;;9.97;61.99;94972.78;5056759;28;20204;-71
2021/01/21 11:22:10;;;;;;;10.83;3.57;;;;;;;9.90;62.17;94985.13;5054182;28;20196;-72
2021/01/21 11:24:36;;;;;;;10.73;3.37;;;;;;;9.85;61.43;94974.38;5056652;28;20208;-71
2021/01/21 11:27:02;;;;;;;12.10;3.70;;;;;;;9.87;61.42;94968.91;5055232;28;20224;-71
2021/01/21 11:29:28;;;;;;;13.17;4.27;;;;;;;9.58;62.04;94969.31;5055118;28;20208;-71
2021/01/21 11:31:55;;;;;;;9.20;3.23;;;;;;;9.65;62.05;94964.88;5055815;28;20232;-71
2021/01/21 11:34:21;;;;;;;6.87;2.23;;;;;;;9.53;62.23;94974.34;5055493;28;20204;-71
2021/01/21 11:36:47;;;;;;;3.13;1.73;;;;;;;9.43;63.49;94975.78;5054300;28;20225;-72
2021/01/21 11:39:14;;;;;;;4.07;1.60;;;;;;;9.46;63.08;94964.88;5054085;28;20232;-71
2021/01/21 11:41:40;;;;;;;7.23;2.80;;;;;;;9.39;63.91;94969.28;5055115;28;20204;-71
2021/01/21 11:44:06;;;;;;;2.67;2.00;;;;;;;9.40;63.71;94963.03;5056926;28;21000;-72